sensor_id;sensor_type;location;lat;lon;timestamp;temperature;humidity
42841;DHT22;28491;46.898;7.660;2023-04-15T00:00:27;6.20;12.10
42841;DHT22;28491;46.898;7.660;2023-04-15T00:02:53;6.10;10.90
42841;DHT22;28491;46.898;7.660;2023-04-15T00:05:19;6.20;8.70
42841;DHT22;28491;46.898;7.660;2023-04-15T00:07:45;6.20;5.80
42841;DHT22;28491;46.898;7.660;2023-04-15T00:10:11;6.20;9.50
42841;DHT22;28491;46.898;7.660;2023-04-15T00:12:37;6.20;9.40
42841;DHT22;28491;46.898;7.660;2023-04-15T00:15:03;6.20;9.20
42841;DHT22;28491;46.898;7.660;2023-04-15T00:17:29;6.20;10.80
42841;DHT22;28491;46.898;7.660;2023-04-15T00:19:55;6.20;9.00
42841;DHT22;28491;46.898;7.660;2023-04-15T00:22:20;6.20;10.40
42841;DHT22;28491;46.898;7.660;2023-04-15T00:24:46;6.20;9.20
42841;DHT22;28491;46.898;7.660;2023-04-15T00:27:12;6.20;9.90
42841;DHT22;28491;46.898;7.660;2023-04-15T00:29:37;6.20;12.80
42841;DHT22;28491;46.898;7.660;2023-04-15T00:32:03;6.20;13.00
42841;DHT22;28491;46.898;7.660;2023-04-15T00:34:29;6.10;13.30
42841;DHT22;28491;46.898;7.660;2023-04-15T00:36:54;6.10;10.40
42841;DHT22;28491;46.898;7.660;2023-04-15T00:39:21;6.10;13.20
42841;DHT22;28491;46.898;7.660;2023-04-15T00:41:47;6.10;17.10
42841;DHT22;28491;46.898;7.660;2023-04-15T00:44:13;6.00;17.90
42841;DHT22;28491;46.898;7.660;2023-04-15T00:46:39;6.10;19.30
42841;DHT22;28491;46.898;7.660;2023-04-15T00:49:06;6.00;17.50
42841;DHT22;28491;46.898;7.660;2023-04-15T00:51:32;6.10;17.40
42841;DHT22;28491;46.898;7.660;2023-04-15T00:54:03;6.00;18.70
42841;DHT22;28491;46.898;7.660;2023-04-15T00:56:29;6.00;20.30
42841;DHT22;28491;46.898;7.660;2023-04-15T00:58:56;6.10;19.90
42841;DHT22;28491;46.898;7.660;2023-04-15T01:01:24;6.00;18.90
42841;DHT22;28491;46.898;7.660;2023-04-15T01:03:50;6.10;20.80
42841;DHT22;28491;46.898;7.660;2023-04-15T01:06:17;6.10;15.20
42841;DHT22;28491;46.898;7.660;2023-04-15T01:08:43;6.10;15.50
42841;DHT22;28491;46.898;7.660;2023-04-15T01:11:09;6.10;15.70
42841;DHT22;28491;46.898;7.660;2023-04-15T01:13:37;6.10;12.40
42841;DHT22;28491;46.898;7.660;2023-04-15T01:16:02;6.10;10.40
42841;DHT22;28491;46.898;7.660;2023-04-15T01:18:29;6.10;13.40
42841;DHT22;28491;46.898;7.660;2023-04-15T01:20:54;6.10;13.80
42841;DHT22;28491;46.898;7.660;2023-04-15T01:23:21;6.10;18.90
42841;DHT22;28491;46.898;7.660;2023-04-15T01:25:48;6.10;17.10
42841;DHT22;28491;46.898;7.660;2023-04-15T01:28:14;6.10;17.70
42841;DHT22;28491;46.898;7.660;2023-04-15T01:30:39;6.00;16.00
42841;DHT22;28491;46.898;7.660;2023-04-15T01:33:05;6.10;14.50
42841;DHT22;28491;46.898;7.660;2023-04-15T01:35:31;6.10;13.80
42841;DHT22;28491;46.898;7.660;2023-04-15T01:38:04;6.00;14.50
42841;DHT22;28491;46.898;7.660;2023-04-15T01:40:31;6.10;16.10
42841;DHT22;28491;46.898;7.660;2023-04-15T01:42:56;6.10;19.30
42841;DHT22;28491;46.898;7.660;2023-04-15T01:45:22;6.10;19.90
42841;DHT22;28491;46.898;7.660;2023-04-15T01:47:47;6.00;24.10
42841;DHT22;28491;46.898;7.660;2023-04-15T01:50:13;6.10;26.00
42841;DHT22;28491;46.898;7.660;2023-04-15T01:52:39;6.00;23.20
42841;DHT22;28491;46.898;7.660;2023-04-15T01:55:05;6.00;24.50
42841;DHT22;28491;46.898;7.660;2023-04-15T01:57:32;6.00;25.40
42841;DHT22;28491;46.898;7.660;2023-04-15T01:59:57;6.00;24.50
42841;DHT22;28491;46.898;7.660;2023-04-15T02:02:23;6.00;25.40
42841;DHT22;28491;46.898;7.660;2023-04-15T02:04:49;6.10;21.30
42841;DHT22;28491;46.898;7.660;2023-04-15T02:07:14;6.10;19.80
42841;DHT22;28491;46.898;7.660;2023-04-15T02:09:40;6.00;20.90
42841;DHT22;28491;46.898;7.660;2023-04-15T02:12:05;6.00;21.20
42841;DHT22;28491;46.898;7.660;2023-04-15T02:14:31;6.10;17.40
42841;DHT22;28491;46.898;7.660;2023-04-15T02:16:56;6.00;15.80
42841;DHT22;28491;46.898;7.660;2023-04-15T02:19:22;6.00;19.90
42841;DHT22;28491;46.898;7.660;2023-04-15T02:21:48;5.90;20.70
42841;DHT22;28491;46.898;7.660;2023-04-15T02:24:13;5.90;21.40
42841;DHT22;28491;46.898;7.660;2023-04-15T02:26:39;5.80;26.30
42841;DHT22;28491;46.898;7.660;2023-04-15T02:29:04;5.80;31.40
42841;DHT22;28491;46.898;7.660;2023-04-15T02:31:30;5.80;37.90
42841;DHT22;28491;46.898;7.660;2023-04-15T02:34:01;5.90;35.50
42841;DHT22;28491;46.898;7.660;2023-04-15T02:36:29;6.00;31.30
42841;DHT22;28491;46.898;7.660;2023-04-15T02:38:55;6.00;29.10
42841;DHT22;28491;46.898;7.660;2023-04-15T02:41:21;6.10;30.20
42841;DHT22;28491;46.898;7.660;2023-04-15T02:43:51;6.10;30.20
42841;DHT22;28491;46.898;7.660;2023-04-15T02:46:16;6.10;31.00
42841;DHT22;28491;46.898;7.660;2023-04-15T02:48:42;6.10;32.90
42841;DHT22;28491;46.898;7.660;2023-04-15T02:51:16;6.10;36.50
42841;DHT22;28491;46.898;7.660;2023-04-15T02:53:42;6.10;47.90
42841;DHT22;28491;46.898;7.660;2023-04-15T02:56:08;6.00;41.60
42841;DHT22;28491;46.898;7.660;2023-04-15T02:58:34;6.00;41.90
42841;DHT22;28491;46.898;7.660;2023-04-15T03:01:00;6.00;56.20
42841;DHT22;28491;46.898;7.660;2023-04-15T03:03:25;6.00;61.70
42841;DHT22;28491;46.898;7.660;2023-04-15T03:05:52;6.00;60.50
42841;DHT22;28491;46.898;7.660;2023-04-15T03:08:18;5.90;60.80
42841;DHT22;28491;46.898;7.660;2023-04-15T03:10:45;6.00;60.30
42841;DHT22;28491;46.898;7.660;2023-04-15T03:13:10;5.90;60.00
42841;DHT22;28491;46.898;7.660;2023-04-15T03:15:36;5.90;60.60
42841;DHT22;28491;46.898;7.660;2023-04-15T03:18:01;5.80;64.50
42841;DHT22;28491;46.898;7.660;2023-04-15T03:20:27;5.80;65.70
42841;DHT22;28491;46.898;7.660;2023-04-15T03:22:52;5.70;67.10
42841;DHT22;28491;46.898;7.660;2023-04-15T03:25:18;5.70;69.30
42841;DHT22;28491;46.898;7.660;2023-04-15T03:27:43;5.60;71.20
42841;DHT22;28491;46.898;7.660;2023-04-15T03:30:09;5.60;74.10
42841;DHT22;28491;46.898;7.660;2023-04-15T03:32:35;5.60;74.20
42841;DHT22;28491;46.898;7.660;2023-04-15T03:35:01;5.50;74.80
42841;DHT22;28491;46.898;7.660;2023-04-15T03:37:26;5.50;76.40
42841;DHT22;28491;46.898;7.660;2023-04-15T03:39:52;5.50;79.10
42841;DHT22;28491;46.898;7.660;2023-04-15T03:42:17;5.50;79.70
42841;DHT22;28491;46.898;7.660;2023-04-15T03:44:43;5.60;80.40
42841;DHT22;28491;46.898;7.660;2023-04-15T03:47:08;5.60;78.30
42841;DHT22;28491;46.898;7.660;2023-04-15T03:49:35;5.60;77.30
42841;DHT22;28491;46.898;7.660;2023-04-15T03:52:01;5.60;77.00
42841;DHT22;28491;46.898;7.660;2023-04-15T03:54:26;5.50;76.90
42841;DHT22;28491;46.898;7.660;2023-04-15T03:56:52;5.50;79.20
42841;DHT22;28491;46.898;7.660;2023-04-15T03:59:17;5.50;81.30
42841;DHT22;28491;46.898;7.660;2023-04-15T04:01:43;5.50;84.40
42841;DHT22;28491;46.898;7.660;2023-04-15T04:04:08;5.60;90.00
42841;DHT22;28491;46.898;7.660;2023-04-15T04:06:34;5.50;89.40
42841;DHT22;28491;46.898;7.660;2023-04-15T04:08:59;5.50;89.80
42841;DHT22;28491;46.898;7.660;2023-04-15T04:11:25;5.40;90.00
42841;DHT22;28491;46.898;7.660;2023-04-15T04:13:52;5.40;90.30
42841;DHT22;28491;46.898;7.660;2023-04-15T04:16:18;5.40;90.50
42841;DHT22;28491;46.898;7.660;2023-04-15T04:18:43;5.40;91.50
42841;DHT22;28491;46.898;7.660;2023-04-15T04:21:09;5.40;92.30
42841;DHT22;28491;46.898;7.660;2023-04-15T04:23:34;5.40;93.30
42841;DHT22;28491;46.898;7.660;2023-04-15T04:26:00;5.40;93.50
42841;DHT22;28491;46.898;7.660;2023-04-15T04:28:27;5.50;94.20
42841;DHT22;28491;46.898;7.660;2023-04-15T04:30:52;5.40;93.60
42841;DHT22;28491;46.898;7.660;2023-04-15T04:33:18;5.50;93.30
42841;DHT22;28491;46.898;7.660;2023-04-15T04:35:43;5.50;93.80
42841;DHT22;28491;46.898;7.660;2023-04-15T04:38:09;5.50;94.10
42841;DHT22;28491;46.898;7.660;2023-04-15T04:40:35;5.50;94.00
42841;DHT22;28491;46.898;7.660;2023-04-15T04:43:01;5.50;93.80
42841;DHT22;28491;46.898;7.660;2023-04-15T04:45:26;5.50;94.10
42841;DHT22;28491;46.898;7.660;2023-04-15T04:47:52;5.50;94.40
42841;DHT22;28491;46.898;7.660;2023-04-15T04:50:17;5.50;94.50
42841;DHT22;28491;46.898;7.660;2023-04-15T04:52:43;5.50;95.10
42841;DHT22;28491;46.898;7.660;2023-04-15T04:55:08;5.50;94.70
42841;DHT22;28491;46.898;7.660;2023-04-15T04:57:34;5.50;94.40
42841;DHT22;28491;46.898;7.660;2023-04-15T05:00:01;5.60;94.70
42841;DHT22;28491;46.898;7.660;2023-04-15T05:02:27;5.60;95.00
42841;DHT22;28491;46.898;7.660;2023-04-15T05:04:53;5.50;94.80
42841;DHT22;28491;46.898;7.660;2023-04-15T05:07:19;5.50;95.30
42841;DHT22;28491;46.898;7.660;2023-04-15T05:09:45;5.50;96.00
42841;DHT22;28491;46.898;7.660;2023-04-15T05:12:11;5.50;96.40
42841;DHT22;28491;46.898;7.660;2023-04-15T05:14:39;5.50;96.80
42841;DHT22;28491;46.898;7.660;2023-04-15T05:17:06;5.50;96.40
42841;DHT22;28491;46.898;7.660;2023-04-15T05:19:31;5.60;96.30
42841;DHT22;28491;46.898;7.660;2023-04-15T05:21:57;5.60;96.30
42841;DHT22;28491;46.898;7.660;2023-04-15T05:24:22;5.60;96.20
42841;DHT22;28491;46.898;7.660;2023-04-15T05:26:48;5.60;96.30
42841;DHT22;28491;46.898;7.660;2023-04-15T05:29:13;5.60;96.50
42841;DHT22;28491;46.898;7.660;2023-04-15T05:31:39;5.70;96.50
42841;DHT22;28491;46.898;7.660;2023-04-15T05:34:05;5.60;96.30
42841;DHT22;28491;46.898;7.660;2023-04-15T05:36:31;5.60;96.40
42841;DHT22;28491;46.898;7.660;2023-04-15T05:38:57;5.60;96.70
42841;DHT22;28491;46.898;7.660;2023-04-15T05:41:22;5.60;96.90
42841;DHT22;28491;46.898;7.660;2023-04-15T05:43:48;5.60;96.70
42841;DHT22;28491;46.898;7.660;2023-04-15T05:46:13;5.70;96.70
42841;DHT22;28491;46.898;7.660;2023-04-15T05:48:39;5.60;96.40
42841;DHT22;28491;46.898;7.660;2023-04-15T05:51:05;5.60;96.20
42841;DHT22;28491;46.898;7.660;2023-04-15T05:53:30;5.70;96.30
42841;DHT22;28491;46.898;7.660;2023-04-15T05:55:56;5.70;95.90
42841;DHT22;28491;46.898;7.660;2023-04-15T05:58:22;5.70;95.30
42841;DHT22;28491;46.898;7.660;2023-04-15T06:00:47;5.70;95.30
42841;DHT22;28491;46.898;7.660;2023-04-15T06:03:13;5.70;95.50
42841;DHT22;28491;46.898;7.660;2023-04-15T06:05:38;5.70;95.40
42841;DHT22;28491;46.898;7.660;2023-04-15T06:08:05;5.70;94.80
42841;DHT22;28491;46.898;7.660;2023-04-15T06:10:30;5.70;94.90
42841;DHT22;28491;46.898;7.660;2023-04-15T06:13:01;5.70;95.20
42841;DHT22;28491;46.898;7.660;2023-04-15T06:15:27;5.70;94.90
42841;DHT22;28491;46.898;7.660;2023-04-15T06:17:52;5.80;95.20
42841;DHT22;28491;46.898;7.660;2023-04-15T06:20:18;5.80;95.20
42841;DHT22;28491;46.898;7.660;2023-04-15T06:22:43;5.80;95.20
42841;DHT22;28491;46.898;7.660;2023-04-15T06:25:09;5.90;95.50
42841;DHT22;28491;46.898;7.660;2023-04-15T06:27:35;5.90;95.40
42841;DHT22;28491;46.898;7.660;2023-04-15T06:30:00;5.90;94.30
42841;DHT22;28491;46.898;7.660;2023-04-15T06:32:26;6.00;94.10
42841;DHT22;28491;46.898;7.660;2023-04-15T06:34:51;6.00;93.40
42841;DHT22;28491;46.898;7.660;2023-04-15T06:37:17;6.00;93.60
42841;DHT22;28491;46.898;7.660;2023-04-15T06:39:42;5.90;93.10
42841;DHT22;28491;46.898;7.660;2023-04-15T06:42:09;5.90;92.50
42841;DHT22;28491;46.898;7.660;2023-04-15T06:44:35;5.80;92.20
42841;DHT22;28491;46.898;7.660;2023-04-15T06:47:01;5.90;92.50
42841;DHT22;28491;46.898;7.660;2023-04-15T06:49:27;5.90;93.00
42841;DHT22;28491;46.898;7.660;2023-04-15T06:51:52;5.90;93.10
42841;DHT22;28491;46.898;7.660;2023-04-15T06:54:18;5.90;92.50
42841;DHT22;28491;46.898;7.660;2023-04-15T06:56:43;6.10;92.00
42841;DHT22;28491;46.898;7.660;2023-04-15T06:59:09;6.10;92.00
42841;DHT22;28491;46.898;7.660;2023-04-15T07:01:35;6.10;91.50
42841;DHT22;28491;46.898;7.660;2023-04-15T07:04:01;6.20;91.20
42841;DHT22;28491;46.898;7.660;2023-04-15T07:06:26;6.10;90.10
42841;DHT22;28491;46.898;7.660;2023-04-15T07:08:52;6.20;89.00
42841;DHT22;28491;46.898;7.660;2023-04-15T07:11:19;6.10;88.20
42841;DHT22;28491;46.898;7.660;2023-04-15T07:13:45;6.10;86.30
42841;DHT22;28491;46.898;7.660;2023-04-15T07:16:11;6.20;87.20
42841;DHT22;28491;46.898;7.660;2023-04-15T07:18:36;6.20;87.50
42841;DHT22;28491;46.898;7.660;2023-04-15T07:21:02;6.20;85.80
42841;DHT22;28491;46.898;7.660;2023-04-15T07:23:28;6.20;87.20
42841;DHT22;28491;46.898;7.660;2023-04-15T07:25:53;6.20;88.40
42841;DHT22;28491;46.898;7.660;2023-04-15T07:28:19;6.30;85.70
42841;DHT22;28491;46.898;7.660;2023-04-15T07:30:45;6.40;85.60
42841;DHT22;28491;46.898;7.660;2023-04-15T07:33:10;6.30;84.00
42841;DHT22;28491;46.898;7.660;2023-04-15T07:35:36;6.30;81.70
42841;DHT22;28491;46.898;7.660;2023-04-15T07:38:02;6.40;82.40
42841;DHT22;28491;46.898;7.660;2023-04-15T07:40:27;6.40;82.50
42841;DHT22;28491;46.898;7.660;2023-04-15T07:42:54;6.40;81.30
42841;DHT22;28491;46.898;7.660;2023-04-15T07:45:20;6.50;82.60
42841;DHT22;28491;46.898;7.660;2023-04-15T07:47:46;6.40;81.00
42841;DHT22;28491;46.898;7.660;2023-04-15T07:50:11;6.50;81.10
42841;DHT22;28491;46.898;7.660;2023-04-15T07:52:37;6.50;79.40
42841;DHT22;28491;46.898;7.660;2023-04-15T07:55:06;6.40;76.20
42841;DHT22;28491;46.898;7.660;2023-04-15T07:57:35;6.40;76.30
42841;DHT22;28491;46.898;7.660;2023-04-15T08:00:03;6.50;76.30
42841;DHT22;28491;46.898;7.660;2023-04-15T08:02:32;6.50;74.70
42841;DHT22;28491;46.898;7.660;2023-04-15T08:04:58;6.50;75.50
42841;DHT22;28491;46.898;7.660;2023-04-15T08:07:24;6.50;74.00
42841;DHT22;28491;46.898;7.660;2023-04-15T08:09:49;6.50;80.40
42841;DHT22;28491;46.898;7.660;2023-04-15T08:12:15;6.50;80.80
42841;DHT22;28491;46.898;7.660;2023-04-15T08:14:41;6.50;83.10
42841;DHT22;28491;46.898;7.660;2023-04-15T08:17:06;6.50;85.40
42841;DHT22;28491;46.898;7.660;2023-04-15T08:19:32;6.50;88.10
42841;DHT22;28491;46.898;7.660;2023-04-15T08:21:58;6.50;90.10
42841;DHT22;28491;46.898;7.660;2023-04-15T08:24:25;6.60;92.20
42841;DHT22;28491;46.898;7.660;2023-04-15T08:26:51;6.60;94.00
42841;DHT22;28491;46.898;7.660;2023-04-15T08:29:17;6.60;93.20
42841;DHT22;28491;46.898;7.660;2023-04-15T08:31:42;6.50;93.50
42841;DHT22;28491;46.898;7.660;2023-04-15T08:34:10;6.50;94.60
42841;DHT22;28491;46.898;7.660;2023-04-15T08:36:36;6.30;94.40
42841;DHT22;28491;46.898;7.660;2023-04-15T08:39:02;6.20;94.80
42841;DHT22;28491;46.898;7.660;2023-04-15T08:41:37;6.20;95.00
42841;DHT22;28491;46.898;7.660;2023-04-15T08:44:04;6.10;93.90
42841;DHT22;28491;46.898;7.660;2023-04-15T08:46:31;6.10;94.20
42841;DHT22;28491;46.898;7.660;2023-04-15T08:48:59;6.20;94.30
42841;DHT22;28491;46.898;7.660;2023-04-15T08:51:27;6.20;93.80
42841;DHT22;28491;46.898;7.660;2023-04-15T08:53:54;6.10;93.20
42841;DHT22;28491;46.898;7.660;2023-04-15T08:56:24;6.20;92.50
42841;DHT22;28491;46.898;7.660;2023-04-15T08:58:51;6.30;93.60
42841;DHT22;28491;46.898;7.660;2023-04-15T09:01:17;6.40;94.60
42841;DHT22;28491;46.898;7.660;2023-04-15T09:03:43;6.30;91.00
42841;DHT22;28491;46.898;7.660;2023-04-15T09:06:09;6.40;91.00
42841;DHT22;28491;46.898;7.660;2023-04-15T09:08:35;6.40;90.40
42841;DHT22;28491;46.898;7.660;2023-04-15T09:11:04;6.40;84.30
42841;DHT22;28491;46.898;7.660;2023-04-15T09:13:30;6.50;91.00
42841;DHT22;28491;46.898;7.660;2023-04-15T09:15:56;6.60;93.00
42841;DHT22;28491;46.898;7.660;2023-04-15T09:18:28;6.70;91.00
42841;DHT22;28491;46.898;7.660;2023-04-15T09:20:54;6.60;74.30
42841;DHT22;28491;46.898;7.660;2023-04-15T09:23:20;6.50;67.70
42841;DHT22;28491;46.898;7.660;2023-04-15T09:25:46;6.50;67.00
42841;DHT22;28491;46.898;7.660;2023-04-15T09:28:13;6.50;78.80
42841;DHT22;28491;46.898;7.660;2023-04-15T09:30:41;6.50;80.00
42841;DHT22;28491;46.898;7.660;2023-04-15T09:33:13;6.60;89.00
42841;DHT22;28491;46.898;7.660;2023-04-15T09:35:39;6.70;90.80
42841;DHT22;28491;46.898;7.660;2023-04-15T09:38:08;6.70;90.10
42841;DHT22;28491;46.898;7.660;2023-04-15T09:43:02;6.90;91.00
42841;DHT22;28491;46.898;7.660;2023-04-15T09:45:28;6.80;87.00
42841;DHT22;28491;46.898;7.660;2023-04-15T09:47:54;6.80;86.60
42841;DHT22;28491;46.898;7.660;2023-04-15T09:50:20;6.80;86.80
42841;DHT22;28491;46.898;7.660;2023-04-15T09:52:46;6.80;89.00
42841;DHT22;28491;46.898;7.660;2023-04-15T09:55:13;6.80;87.50
42841;DHT22;28491;46.898;7.660;2023-04-15T09:57:39;6.80;89.30
42841;DHT22;28491;46.898;7.660;2023-04-15T10:00:12;6.80;90.80
42841;DHT22;28491;46.898;7.660;2023-04-15T10:02:40;6.80;89.70
42841;DHT22;28491;46.898;7.660;2023-04-15T10:05:08;6.80;90.10
42841;DHT22;28491;46.898;7.660;2023-04-15T10:07:34;6.90;91.10
42841;DHT22;28491;46.898;7.660;2023-04-15T10:10:00;6.90;92.40
42841;DHT22;28491;46.898;7.660;2023-04-15T10:12:27;6.90;92.60
42841;DHT22;28491;46.898;7.660;2023-04-15T10:15:04;7.00;92.30
42841;DHT22;28491;46.898;7.660;2023-04-15T10:17:31;7.00;92.50
42841;DHT22;28491;46.898;7.660;2023-04-15T10:20:02;7.10;92.10
42841;DHT22;28491;46.898;7.660;2023-04-15T10:22:29;7.10;91.30
42841;DHT22;28491;46.898;7.660;2023-04-15T10:24:56;7.10;91.10
42841;DHT22;28491;46.898;7.660;2023-04-15T10:27:22;7.10;91.30
42841;DHT22;28491;46.898;7.660;2023-04-15T10:29:49;7.10;91.40
42841;DHT22;28491;46.898;7.660;2023-04-15T10:32:20;7.20;92.60
42841;DHT22;28491;46.898;7.660;2023-04-15T10:34:48;7.20;92.40
42841;DHT22;28491;46.898;7.660;2023-04-15T10:37:20;7.10;92.60
42841;DHT22;28491;46.898;7.660;2023-04-15T10:39:47;7.10;93.20
42841;DHT22;28491;46.898;7.660;2023-04-15T10:42:14;7.10;94.70
42841;DHT22;28491;46.898;7.660;2023-04-15T10:44:51;7.10;94.80
42841;DHT22;28491;46.898;7.660;2023-04-15T10:47:21;7.00;91.60
42841;DHT22;28491;46.898;7.660;2023-04-15T10:49:49;7.00;91.00
42841;DHT22;28491;46.898;7.660;2023-04-15T10:52:23;7.10;93.10
42841;DHT22;28491;46.898;7.660;2023-04-15T10:54:49;7.10;93.90
42841;DHT22;28491;46.898;7.660;2023-04-15T10:57:20;7.10;93.60
42841;DHT22;28491;46.898;7.660;2023-04-15T11:02:43;7.10;91.30
42841;DHT22;28491;46.898;7.660;2023-04-15T11:05:11;7.20;92.00
42841;DHT22;28491;46.898;7.660;2023-04-15T11:07:40;7.30;92.20
42841;DHT22;28491;46.898;7.660;2023-04-15T11:13:04;7.40;93.60
42841;DHT22;28491;46.898;7.660;2023-04-15T11:15:39;7.50;94.10
42841;DHT22;28491;46.898;7.660;2023-04-15T11:20:43;7.50;87.60
42841;DHT22;28491;46.898;7.660;2023-04-15T11:23:09;7.50;84.30
42841;DHT22;28491;46.898;7.660;2023-04-15T11:25:35;7.50;82.80
42841;DHT22;28491;46.898;7.660;2023-04-15T11:28:04;7.60;88.00
42841;DHT22;28491;46.898;7.660;2023-04-15T11:30:32;7.70;88.40
42841;DHT22;28491;46.898;7.660;2023-04-15T11:33:02;7.70;84.10
42841;DHT22;28491;46.898;7.660;2023-04-15T11:35:29;7.70;81.40
42841;DHT22;28491;46.898;7.660;2023-04-15T11:37:55;7.60;74.20
42841;DHT22;28491;46.898;7.660;2023-04-15T11:40:25;7.60;71.80
42841;DHT22;28491;46.898;7.660;2023-04-15T11:43:23;7.60;75.00
42841;DHT22;28491;46.898;7.660;2023-04-15T11:45:55;7.60;73.60
42841;DHT22;28491;46.898;7.660;2023-04-15T11:48:23;7.50;70.30
42841;DHT22;28491;46.898;7.660;2023-04-15T11:51:02;7.50;72.70
42841;DHT22;28491;46.898;7.660;2023-04-15T11:53:35;7.50;70.70
42841;DHT22;28491;46.898;7.660;2023-04-15T11:56:01;7.60;68.60
42841;DHT22;28491;46.898;7.660;2023-04-15T11:58:28;7.70;68.60
42841;DHT22;28491;46.898;7.660;2023-04-15T12:00:56;7.60;70.40
42841;DHT22;28491;46.898;7.660;2023-04-15T12:03:24;7.60;73.70
42841;DHT22;28491;46.898;7.660;2023-04-15T12:09:07;7.60;70.10
42841;DHT22;28491;46.898;7.660;2023-04-15T12:11:50;7.60;72.60
42841;DHT22;28491;46.898;7.660;2023-04-15T12:14:30;7.60;71.20
42841;DHT22;28491;46.898;7.660;2023-04-15T12:17:03;7.70;70.40
42841;DHT22;28491;46.898;7.660;2023-04-15T12:19:36;7.60;67.90
42841;DHT22;28491;46.898;7.660;2023-04-15T12:22:09;7.70;68.00
42841;DHT22;28491;46.898;7.660;2023-04-15T12:24:36;7.80;65.90
42841;DHT22;28491;46.898;7.660;2023-04-15T12:27:13;7.80;64.60
42841;DHT22;28491;46.898;7.660;2023-04-15T12:29:39;7.80;64.20
42841;DHT22;28491;46.898;7.660;2023-04-15T12:32:06;7.70;63.30
42841;DHT22;28491;46.898;7.660;2023-04-15T12:34:40;7.70;63.50
42841;DHT22;28491;46.898;7.660;2023-04-15T12:37:07;7.70;62.30
42841;DHT22;28491;46.898;7.660;2023-04-15T12:39:39;7.70;64.00
42841;DHT22;28491;46.898;7.660;2023-04-15T12:42:06;7.70;61.90
42841;DHT22;28491;46.898;7.660;2023-04-15T12:44:32;7.60;62.10
42841;DHT22;28491;46.898;7.660;2023-04-15T12:46:58;7.60;64.00
42841;DHT22;28491;46.898;7.660;2023-04-15T12:49:24;7.50;62.50
42841;DHT22;28491;46.898;7.660;2023-04-15T12:51:52;7.50;63.50
42841;DHT22;28491;46.898;7.660;2023-04-15T12:54:19;7.40;62.20
42841;DHT22;28491;46.898;7.660;2023-04-15T12:56:45;7.40;64.00
42841;DHT22;28491;46.898;7.660;2023-04-15T12:59:12;7.40;62.80
42841;DHT22;28491;46.898;7.660;2023-04-15T13:01:38;7.40;62.70
42841;DHT22;28491;46.898;7.660;2023-04-15T13:04:04;7.30;63.20
42841;DHT22;28491;46.898;7.660;2023-04-15T13:06:30;7.30;64.80
42841;DHT22;28491;46.898;7.660;2023-04-15T13:09:01;7.20;63.80
42841;DHT22;28491;46.898;7.660;2023-04-15T13:11:27;7.20;66.40
42841;DHT22;28491;46.898;7.660;2023-04-15T13:13:55;7.30;67.20
42841;DHT22;28491;46.898;7.660;2023-04-15T13:16:21;7.20;68.80
42841;DHT22;28491;46.898;7.660;2023-04-15T13:18:47;7.20;70.90
42841;DHT22;28491;46.898;7.660;2023-04-15T13:21:13;7.30;71.60
42841;DHT22;28491;46.898;7.660;2023-04-15T13:23:41;7.30;71.70
42841;DHT22;28491;46.898;7.660;2023-04-15T13:26:06;7.30;74.70
42841;DHT22;28491;46.898;7.660;2023-04-15T13:28:32;7.40;73.80
42841;DHT22;28491;46.898;7.660;2023-04-15T13:30:58;7.40;69.70
42841;DHT22;28491;46.898;7.660;2023-04-15T13:33:24;7.40;69.60
42841;DHT22;28491;46.898;7.660;2023-04-15T13:35:50;7.40;67.30
42841;DHT22;28491;46.898;7.660;2023-04-15T13:38:15;7.30;68.60
42841;DHT22;28491;46.898;7.660;2023-04-15T13:40:41;7.40;70.70
42841;DHT22;28491;46.898;7.660;2023-04-15T13:43:06;7.40;71.50
42841;DHT22;28491;46.898;7.660;2023-04-15T13:45:32;7.40;67.10
42841;DHT22;28491;46.898;7.660;2023-04-15T13:47:58;7.30;67.70
42841;DHT22;28491;46.898;7.660;2023-04-15T13:50:24;7.30;70.10
42841;DHT22;28491;46.898;7.660;2023-04-15T13:52:49;7.20;74.20
42841;DHT22;28491;46.898;7.660;2023-04-15T13:55:15;7.10;75.80
42841;DHT22;28491;46.898;7.660;2023-04-15T13:57:40;7.20;77.40
42841;DHT22;28491;46.898;7.660;2023-04-15T14:00:06;7.10;78.00
42841;DHT22;28491;46.898;7.660;2023-04-15T14:02:32;7.10;77.90
42841;DHT22;28491;46.898;7.660;2023-04-15T14:04:58;7.10;80.90
42841;DHT22;28491;46.898;7.660;2023-04-15T14:07:23;7.10;82.00
42841;DHT22;28491;46.898;7.660;2023-04-15T14:09:49;7.10;83.90
42841;DHT22;28491;46.898;7.660;2023-04-15T14:12:15;7.10;89.40
42841;DHT22;28491;46.898;7.660;2023-04-15T14:14:40;7.10;91.50
42841;DHT22;28491;46.898;7.660;2023-04-15T14:17:06;7.10;91.00
42841;DHT22;28491;46.898;7.660;2023-04-15T14:19:33;7.20;90.90
42841;DHT22;28491;46.898;7.660;2023-04-15T14:21:59;7.10;88.40
42841;DHT22;28491;46.898;7.660;2023-04-15T14:24:25;7.20;88.60
42841;DHT22;28491;46.898;7.660;2023-04-15T14:26:50;7.20;88.40
42841;DHT22;28491;46.898;7.660;2023-04-15T14:29:16;7.20;89.00
42841;DHT22;28491;46.898;7.660;2023-04-15T14:31:41;7.10;86.90
42841;DHT22;28491;46.898;7.660;2023-04-15T14:34:09;7.00;84.50
42841;DHT22;28491;46.898;7.660;2023-04-15T14:36:35;7.10;86.20
42841;DHT22;28491;46.898;7.660;2023-04-15T14:39:00;7.20;84.80
42841;DHT22;28491;46.898;7.660;2023-04-15T14:41:26;7.20;83.70
42841;DHT22;28491;46.898;7.660;2023-04-15T14:43:51;7.20;85.30
42841;DHT22;28491;46.898;7.660;2023-04-15T14:46:17;7.20;84.10
42841;DHT22;28491;46.898;7.660;2023-04-15T14:48:43;7.20;85.70
42841;DHT22;28491;46.898;7.660;2023-04-15T14:51:08;7.20;83.80
42841;DHT22;28491;46.898;7.660;2023-04-15T14:53:34;7.30;85.40
42841;DHT22;28491;46.898;7.660;2023-04-15T14:55:59;7.30;82.80
42841;DHT22;28491;46.898;7.660;2023-04-15T14:58:25;7.30;81.50
42841;DHT22;28491;46.898;7.660;2023-04-15T15:00:50;7.20;82.50
42841;DHT22;28491;46.898;7.660;2023-04-15T15:03:16;7.20;82.50
42841;DHT22;28491;46.898;7.660;2023-04-15T15:05:43;7.10;81.80
42841;DHT22;28491;46.898;7.660;2023-04-15T15:08:09;7.10;81.60
42841;DHT22;28491;46.898;7.660;2023-04-15T15:10:36;7.20;81.70
42841;DHT22;28491;46.898;7.660;2023-04-15T15:13:04;7.10;80.70
42841;DHT22;28491;46.898;7.660;2023-04-15T15:15:30;7.00;82.90
42841;DHT22;28491;46.898;7.660;2023-04-15T15:17:56;7.10;83.50
42841;DHT22;28491;46.898;7.660;2023-04-15T15:20:22;7.10;83.20
42841;DHT22;28491;46.898;7.660;2023-04-15T15:22:48;7.00;82.60
42841;DHT22;28491;46.898;7.660;2023-04-15T15:25:13;7.00;82.00
42841;DHT22;28491;46.898;7.660;2023-04-15T15:27:39;6.80;81.40
42841;DHT22;28491;46.898;7.660;2023-04-15T15:30:05;6.90;84.90
42841;DHT22;28491;46.898;7.660;2023-04-15T15:32:31;6.80;87.60
42841;DHT22;28491;46.898;7.660;2023-04-15T15:34:56;6.80;88.60
42841;DHT22;28491;46.898;7.660;2023-04-15T15:37:22;6.80;89.70
42841;DHT22;28491;46.898;7.660;2023-04-15T15:39:47;6.80;90.70
42841;DHT22;28491;46.898;7.660;2023-04-15T15:42:15;6.80;91.90
42841;DHT22;28491;46.898;7.660;2023-04-15T15:44:41;6.90;93.80
42841;DHT22;28491;46.898;7.660;2023-04-15T15:47:06;6.90;94.00
42841;DHT22;28491;46.898;7.660;2023-04-15T15:49:32;6.90;93.20
42841;DHT22;28491;46.898;7.660;2023-04-15T15:51:58;7.00;93.20
42841;DHT22;28491;46.898;7.660;2023-04-15T15:54:24;6.90;93.50
42841;DHT22;28491;46.898;7.660;2023-04-15T15:56:49;6.90;94.30